Wolf Point, MT

6:05 PM MDT on October 22, 2014 (GMT -0600)
Clayton | Change Station
CLOSE
Current Station
Airport
Location: Wolf Point,
Elevation: 1985 ft
Nearby Weather Stations

Elev 1985 ft 48.09 °N, 105.58 °W | Updated 12 minutes ago

Clear
Clear
58 °F
Feels Like 58 °F
N
7
Wind Variable Wind from West

Today
High -- | Low -- °F
--% Chance of Precip.
Yesterday
High -- | Low -- °F
Precip. -- in
7:32 AM 6:00 PM
Waning Crescent, 1% visible
Pressure 29.86 in
Visibility 10.0 miles
Clouds Clear
Dew Point 33 °F
Humidity 39%
Rainfall 0.00 in
Snow Depth Not available.
UV 0 out of 12
Pollen 2.00 out of 12
Air Quality Not available.
Flu Activity No Activity
METAR KOLF 222353Z AUTO 26006KT 10SM CLR 14/01 A2985 RMK AO2 SLP111 T01440006 10183 20144 53003

More Conditions Fewer Conditions

Pressure 29.86 in
Visibility 10.0 miles
Clouds Clear
Dew Point 33 °F
Humidity 39%
Rainfall 0.00 in
Snow Depth Not available.
UV 0 out of 12
Pollen 2.00 out of 12
Air Quality Not available.
Flu Activity No Activity
METAR KOLF 222353Z AUTO 26006KT 10SM CLR 14/01 A2985 RMK AO2 SLP111 T01440006 10183 20144 53003

More Conditions Fewer Conditions

10-Day Weather Forecast

Almanac

Astronomy

Oct. 22, 2014 Rise Set
Actual Time 7:32 AM MDT 6:00 PM MDT
Civil Twilight 7:00 AM MDT 6:32 PM MDT
Nautical Twilight 6:24 AM MDT 7:08 PM MDT
Astronomical Twilight 5:48 AM MDT 7:44 PM MDT
Moon 6:10 AM MDT (10/22) 5:32 PM MDT (10/22)
Length of Visible Light 11h 31m
Length of Day
10h 28m
Tomorrow will be 3m 18s shorter.
Waning Crescent, 1% of the Moon is Illuminated
Today
Waning Crescent
Oct 23
New
Oct 30
First Quarter
Nov 6
Full
Nov 14
Last Quarter

Today's Extremes

State Highs State Lows

Community

WunderPhotos

Upload Photos

1,764,082 photos uploaded!

WunderBlogs® & News

Nearby

Snow Depth

Station Depth Elevation
Crystal Lake 1 in 6050 ft
Daisy Peak 0 in 7600 ft
Spur Park 0 in 8100 ft
Deadman Creek 0 in 6450 ft
Stringer Creek 0 in 6550 ft

Earthquake Activity

City Distance Mag. Time & Date
No recent earthquake activity has been reported nearby.
Minimum magnitude displayed is 2.5.

Coastal Water Temperatures

Place Temperature
No Stations Reporting

Nearby Weather Stations